sensor_id;sensor_type;location;lat;lon;timestamp;pressure;altitude;pressure_sealevel;temperature;humidity
75815;BME280;70031;45.570;14.228;2023-12-14T00:01:54;95702.09;;;3.21;100.00
75815;BME280;70031;45.570;14.228;2023-12-14T00:03:54;95707.13;;;3.28;100.00
75815;BME280;70031;45.570;14.228;2023-12-14T00:05:54;95707.09;;;3.43;100.00
75815;BME280;70031;45.570;14.228;2023-12-14T00:07:55;95705.78;;;3.35;100.00
75815;BME280;70031;45.570;14.228;2023-12-14T00:09:55;95710.84;;;3.37;100.00
75815;BME280;70031;45.570;14.228;2023-12-14T00:11:55;95696.75;;;3.36;100.00
75815;BME280;70031;45.570;14.228;2023-12-14T00:13:55;95694.38;;;3.40;100.00
75815;BME280;70031;45.570;14.228;2023-12-14T00:15:56;95704.22;;;3.40;100.00
75815;BME280;70031;45.570;14.228;2023-12-14T00:17:56;95696.47;;;3.38;100.00
75815;BME280;70031;45.570;14.228;2023-12-14T00:19:56;95700.75;;;3.34;100.00
75815;BME280;70031;45.570;14.228;2023-12-14T00:21:56;95704.22;;;3.29;100.00
75815;BME280;70031;45.570;14.228;2023-12-14T00:23:56;95706.34;;;3.27;100.00
75815;BME280;70031;45.570;14.228;2023-12-14T00:25:57;95709.78;;;3.33;100.00
75815;BME280;70031;45.570;14.228;2023-12-14T00:27:57;95711.91;;;3.36;100.00
75815;BME280;70031;45.570;14.228;2023-12-14T00:29:57;95713.41;;;3.67;100.00
75815;BME280;70031;45.570;14.228;2023-12-14T00:31:57;95716.34;;;3.66;100.00
75815;BME280;70031;45.570;14.228;2023-12-14T00:33:57;95719.84;;;3.56;100.00
75815;BME280;70031;45.570;14.228;2023-12-14T00:35:58;95727.03;;;3.46;100.00
75815;BME280;70031;45.570;14.228;2023-12-14T00:37:58;95731.81;;;3.54;100.00
75815;BME280;70031;45.570;14.228;2023-12-14T00:39:58;95736.28;;;3.74;100.00
75815;BME280;70031;45.570;14.228;2023-12-14T00:41:58;95733.56;;;3.89;100.00
75815;BME280;70031;45.570;14.228;2023-12-14T00:43:58;95737.78;;;3.95;100.00
75815;BME280;70031;45.570;14.228;2023-12-14T00:45:58;95740.50;;;3.80;100.00
75815;BME280;70031;45.570;14.228;2023-12-14T00:47:59;95739.47;;;3.76;100.00
75815;BME280;70031;45.570;14.228;2023-12-14T00:49:59;95744.50;;;3.72;100.00
75815;BME280;70031;45.570;14.228;2023-12-14T00:51:59;95738.41;;;3.72;100.00
75815;BME280;70031;45.570;14.228;2023-12-14T00:53:59;95737.59;;;3.71;100.00
75815;BME280;70031;45.570;14.228;2023-12-14T00:55:59;95739.69;;;3.79;100.00
75815;BME280;70031;45.570;14.228;2023-12-14T00:58:00;95740.47;;;3.90;100.00
75815;BME280;70031;45.570;14.228;2023-12-14T01:00:00;95743.41;;;3.88;100.00
75815;BME280;70031;45.570;14.228;2023-12-14T01:02:00;95743.16;;;3.80;100.00
75815;BME280;70031;45.570;14.228;2023-12-14T01:04:00;95744.81;;;3.60;100.00
75815;BME280;70031;45.570;14.228;2023-12-14T01:06:01;95749.59;;;3.63;100.00
75815;BME280;70031;45.570;14.228;2023-12-14T01:08:01;95756.47;;;3.80;100.00
75815;BME280;70031;45.570;14.228;2023-12-14T01:10:01;95768.34;;;4.08;100.00
75815;BME280;70031;45.570;14.228;2023-12-14T01:12:01;95767.66;;;3.72;100.00
75815;BME280;70031;45.570;14.228;2023-12-14T01:14:02;95773.00;;;3.72;100.00
75815;BME280;70031;45.570;14.228;2023-12-14T01:16:02;95763.59;;;3.94;100.00
75815;BME280;70031;45.570;14.228;2023-12-14T01:18:02;95768.91;;;4.00;100.00
75815;BME280;70031;45.570;14.228;2023-12-14T01:20:09;95770.44;;;4.16;100.00
75815;BME280;70031;45.570;14.228;2023-12-14T01:22:10;95777.09;;;4.18;100.00
75815;BME280;70031;45.570;14.228;2023-12-14T01:24:10;95775.72;;;4.21;100.00
75815;BME280;70031;45.570;14.228;2023-12-14T01:26:10;95772.84;;;4.12;100.00
75815;BME280;70031;45.570;14.228;2023-12-14T01:28:11;95773.97;;;4.01;100.00
75815;BME280;70031;45.570;14.228;2023-12-14T01:30:11;95776.84;;;4.15;100.00
75815;BME280;70031;45.570;14.228;2023-12-14T01:32:11;95784.84;;;4.15;100.00
75815;BME280;70031;45.570;14.228;2023-12-14T01:34:12;95783.81;;;4.01;100.00
75815;BME280;70031;45.570;14.228;2023-12-14T01:36:12;95794.25;;;3.87;100.00
75815;BME280;70031;45.570;14.228;2023-12-14T01:38:19;95785.50;;;3.81;100.00
75815;BME280;70031;45.570;14.228;2023-12-14T01:40:19;95799.84;;;3.80;100.00
75815;BME280;70031;45.570;14.228;2023-12-14T01:42:20;95796.69;;;3.73;100.00
75815;BME280;70031;45.570;14.228;2023-12-14T01:44:20;95799.06;;;3.75;100.00
75815;BME280;70031;45.570;14.228;2023-12-14T01:46:20;95797.13;;;3.95;100.00
75815;BME280;70031;45.570;14.228;2023-12-14T01:48:21;95803.19;;;4.16;100.00
75815;BME280;70031;45.570;14.228;2023-12-14T01:50:21;95807.69;;;4.26;100.00
75815;BME280;70031;45.570;14.228;2023-12-14T01:52:21;95809.56;;;4.26;100.00
75815;BME280;70031;45.570;14.228;2023-12-14T01:54:21;95804.28;;;4.10;100.00
75815;BME280;70031;45.570;14.228;2023-12-14T01:56:22;95812.03;;;3.97;100.00
75815;BME280;70031;45.570;14.228;2023-12-14T01:58:22;95817.34;;;4.02;100.00
75815;BME280;70031;45.570;14.228;2023-12-14T02:02:29;95827.13;;;4.21;100.00
75815;BME280;70031;45.570;14.228;2023-12-14T02:04:29;95827.97;;;4.17;100.00
75815;BME280;70031;45.570;14.228;2023-12-14T02:06:30;95830.88;;;4.20;100.00
75815;BME280;70031;45.570;14.228;2023-12-14T02:08:30;95830.63;;;4.17;100.00
75815;BME280;70031;45.570;14.228;2023-12-14T02:10:30;95827.16;;;4.11;100.00
75815;BME280;70031;45.570;14.228;2023-12-14T02:12:31;95821.66;;;3.87;100.00
75815;BME280;70031;45.570;14.228;2023-12-14T02:14:33;95823.56;;;3.66;100.00
75815;BME280;70031;45.570;14.228;2023-12-14T02:16:33;95824.63;;;3.55;100.00
75815;BME280;70031;45.570;14.228;2023-12-14T02:18:34;95829.94;;;3.71;100.00
75815;BME280;70031;45.570;14.228;2023-12-14T02:20:34;95831.00;;;3.70;100.00
75815;BME280;70031;45.570;14.228;2023-12-14T02:22:53;95837.38;;;3.79;100.00
75815;BME280;70031;45.570;14.228;2023-12-14T02:24:53;95821.94;;;3.76;100.00
75815;BME280;70031;45.570;14.228;2023-12-14T02:26:53;95824.63;;;3.65;100.00
75815;BME280;70031;45.570;14.228;2023-12-14T02:28:54;95829.44;;;3.58;100.00
75815;BME280;70031;45.570;14.228;2023-12-14T02:30:54;95832.84;;;3.64;100.00
75815;BME280;70031;45.570;14.228;2023-12-14T02:32:54;95829.44;;;3.58;100.00
75815;BME280;70031;45.570;14.228;2023-12-14T02:34:54;95833.19;;;3.32;100.00
75815;BME280;70031;45.570;14.228;2023-12-14T02:36:54;95854.16;;;3.13;100.00
75815;BME280;70031;45.570;14.228;2023-12-14T02:38:55;95852.56;;;3.02;100.00
75815;BME280;70031;45.570;14.228;2023-12-14T02:40:55;95856.00;;;2.97;100.00
75815;BME280;70031;45.570;14.228;2023-12-14T02:42:55;95854.97;;;2.98;100.00
75815;BME280;70031;45.570;14.228;2023-12-14T02:44:55;95853.66;;;3.26;100.00
75815;BME280;70031;45.570;14.228;2023-12-14T02:46:56;95854.97;;;3.59;100.00
75815;BME280;70031;45.570;14.228;2023-12-14T02:48:56;95847.53;;;3.56;100.00
75815;BME280;70031;45.570;14.228;2023-12-14T02:50:56;95845.63;;;3.62;100.00
75815;BME280;70031;45.570;14.228;2023-12-14T02:52:57;95856.00;;;3.79;100.00
75815;BME280;70031;45.570;14.228;2023-12-14T02:54:57;95860.25;;;3.85;100.00
75815;BME280;70031;45.570;14.228;2023-12-14T02:56:57;95863.19;;;3.83;100.00
75815;BME280;70031;45.570;14.228;2023-12-14T02:58:57;95858.09;;;3.87;100.00
75815;BME280;70031;45.570;14.228;2023-12-14T03:00:58;95862.09;;;3.79;100.00
75815;BME280;70031;45.570;14.228;2023-12-14T03:02:58;95864.50;;;3.86;100.00
75815;BME280;70031;45.570;14.228;2023-12-14T03:04:58;95866.38;;;3.75;100.00
75815;BME280;70031;45.570;14.228;2023-12-14T03:06:58;95869.56;;;3.77;100.00
75815;BME280;70031;45.570;14.228;2023-12-14T03:09:02;95865.31;;;3.71;100.00
75815;BME280;70031;45.570;14.228;2023-12-14T03:11:02;95861.59;;;3.62;100.00
75815;BME280;70031;45.570;14.228;2023-12-14T03:13:02;95862.66;;;3.81;100.00
75815;BME280;70031;45.570;14.228;2023-12-14T03:15:03;95869.78;;;3.96;100.00
75815;BME280;70031;45.570;14.228;2023-12-14T03:17:03;95870.09;;;3.79;100.00
75815;BME280;70031;45.570;14.228;2023-12-14T03:19:03;95871.91;;;4.04;100.00
75815;BME280;70031;45.570;14.228;2023-12-14T03:21:03;95863.69;;;4.01;100.00
75815;BME280;70031;45.570;14.228;2023-12-14T03:23:04;95861.81;;;4.01;100.00
75815;BME280;70031;45.570;14.228;2023-12-14T03:25:04;95863.91;;;4.09;100.00
75815;BME280;70031;45.570;14.228;2023-12-14T03:27:05;95869.28;;;3.99;100.00
75815;BME280;70031;45.570;14.228;2023-12-14T03:29:05;95866.06;;;4.02;100.00
75815;BME280;70031;45.570;14.228;2023-12-14T03:31:05;95868.19;;;4.10;100.00
75815;BME280;70031;45.570;14.228;2023-12-14T03:33:05;95872.69;;;4.15;100.00
75815;BME280;70031;45.570;14.228;2023-12-14T03:35:07;95876.75;;;3.92;100.00
75815;BME280;70031;45.570;14.228;2023-12-14T03:37:08;95875.38;;;4.05;100.00
75815;BME280;70031;45.570;14.228;2023-12-14T03:39:08;95887.38;;;4.07;100.00
75815;BME280;70031;45.570;14.228;2023-12-14T03:41:08;95881.78;;;3.99;100.00
75815;BME280;70031;45.570;14.228;2023-12-14T03:43:09;95875.13;;;3.96;100.00
75815;BME280;70031;45.570;14.228;2023-12-14T03:45:09;95886.56;;;4.07;100.00
75815;BME280;70031;45.570;14.228;2023-12-14T03:47:09;95884.19;;;4.00;100.00
75815;BME280;70031;45.570;14.228;2023-12-14T03:49:09;95878.53;;;4.22;100.00
75815;BME280;70031;45.570;14.228;2023-12-14T03:51:09;95880.94;;;4.18;100.00
75815;BME280;70031;45.570;14.228;2023-12-14T03:53:10;95878.28;;;4.13;100.00
75815;BME280;70031;45.570;14.228;2023-12-14T03:55:10;95881.00;;;3.98;100.00
75815;BME280;70031;45.570;14.228;2023-12-14T03:57:10;95880.16;;;4.03;100.00
75815;BME280;70031;45.570;14.228;2023-12-14T03:59:10;95879.91;;;4.09;100.00
75815;BME280;70031;45.570;14.228;2023-12-14T04:01:17;95888.41;;;4.11;100.00
75815;BME280;70031;45.570;14.228;2023-12-14T04:03:18;95883.94;;;3.91;100.00
75815;BME280;70031;45.570;14.228;2023-12-14T04:05:18;95883.16;;;3.55;100.00
75815;BME280;70031;45.570;14.228;2023-12-14T04:07:18;95887.94;;;3.38;100.00
75815;BME280;70031;45.570;14.228;2023-12-14T04:09:18;95899.66;;;3.42;100.00
75815;BME280;70031;45.570;14.228;2023-12-14T04:11:18;95902.53;;;3.20;100.00
75815;BME280;70031;45.570;14.228;2023-12-14T04:13:19;95910.53;;;3.30;100.00
75815;BME280;70031;45.570;14.228;2023-12-14T04:15:19;95911.34;;;3.36;100.00
75815;BME280;70031;45.570;14.228;2023-12-14T04:17:19;95915.06;;;3.30;100.00
75815;BME280;70031;45.570;14.228;2023-12-14T04:19:19;95929.94;;;3.21;100.00
75815;BME280;70031;45.570;14.228;2023-12-14T04:21:20;95916.66;;;3.26;100.00
75815;BME280;70031;45.570;14.228;2023-12-14T04:23:20;95932.09;;;3.44;100.00
75815;BME280;70031;45.570;14.228;2023-12-14T04:25:20;95924.38;;;3.43;100.00
75815;BME280;70031;45.570;14.228;2023-12-14T04:27:20;95914.53;;;3.23;100.00
75815;BME280;70031;45.570;14.228;2023-12-14T04:29:24;95925.66;;;3.09;100.00
75815;BME280;70031;45.570;14.228;2023-12-14T04:31:24;95928.28;;;2.94;100.00
75815;BME280;70031;45.570;14.228;2023-12-14T04:33:24;95933.03;;;2.82;100.00
75815;BME280;70031;45.570;14.228;2023-12-14T04:35:24;95933.84;;;2.83;100.00
75815;BME280;70031;45.570;14.228;2023-12-14T04:37:25;95933.53;;;2.79;100.00
75815;BME280;70031;45.570;14.228;2023-12-14T04:39:25;95934.34;;;2.74;100.00
75815;BME280;70031;45.570;14.228;2023-12-14T04:41:25;95934.56;;;2.68;100.00
75815;BME280;70031;45.570;14.228;2023-12-14T04:43:25;95928.72;;;2.71;100.00
75815;BME280;70031;45.570;14.228;2023-12-14T04:45:29;95933.41;;;3.16;100.00
75815;BME280;70031;45.570;14.228;2023-12-14T04:47:29;95924.63;;;3.26;100.00
75815;BME280;70031;45.570;14.228;2023-12-14T04:49:29;95942.94;;;3.12;100.00
75815;BME280;70031;45.570;14.228;2023-12-14T04:51:30;95941.03;;;2.97;100.00
75815;BME280;70031;45.570;14.228;2023-12-14T04:53:30;95943.13;;;2.85;100.00
75815;BME280;70031;45.570;14.228;2023-12-14T04:55:30;95946.34;;;2.92;100.00
75815;BME280;70031;45.570;14.228;2023-12-14T04:57:30;95940.28;;;3.12;100.00
75815;BME280;70031;45.570;14.228;2023-12-14T04:59:30;95947.47;;;3.17;100.00
75815;BME280;70031;45.570;14.228;2023-12-14T05:01:31;95950.13;;;3.17;100.00
75815;BME280;70031;45.570;14.228;2023-12-14T05:03:31;95944.81;;;3.12;100.00
75815;BME280;70031;45.570;14.228;2023-12-14T05:05:31;95943.75;;;3.13;100.00
75815;BME280;70031;45.570;14.228;2023-12-14T05:07:31;95951.94;;;2.91;100.00
75815;BME280;70031;45.570;14.228;2023-12-14T05:09:31;95954.81;;;2.84;100.00
75815;BME280;70031;45.570;14.228;2023-12-14T05:11:32;95956.09;;;2.71;100.00
75815;BME280;70031;45.570;14.228;2023-12-14T05:13:32;95957.31;;;2.43;100.00
75815;BME280;70031;45.570;14.228;2023-12-14T05:15:32;95962.63;;;2.43;100.00
75815;BME280;70031;45.570;14.228;2023-12-14T05:17:32;95967.09;;;2.38;100.00
75815;BME280;70031;45.570;14.228;2023-12-14T05:19:34;95961.50;;;2.39;100.00
75815;BME280;70031;45.570;14.228;2023-12-14T05:21:34;95958.44;;;2.58;100.00
75815;BME280;70031;45.570;14.228;2023-12-14T05:23:35;95966.44;;;2.73;100.00
75815;BME280;70031;45.570;14.228;2023-12-14T05:25:35;95973.13;;;2.80;100.00
75815;BME280;70031;45.570;14.228;2023-12-14T05:27:35;95972.81;;;2.72;100.00
75815;BME280;70031;45.570;14.228;2023-12-14T05:29:35;95969.19;;;2.93;100.00
75815;BME280;70031;45.570;14.228;2023-12-14T05:31:35;95980.13;;;3.02;100.00
75815;BME280;70031;45.570;14.228;2023-12-14T05:33:36;95975.59;;;2.92;100.00
75815;BME280;70031;45.570;14.228;2023-12-14T05:35:36;95960.06;;;2.69;100.00
75815;BME280;70031;45.570;14.228;2023-12-14T05:37:38;95965.16;;;2.75;100.00
75815;BME280;70031;45.570;14.228;2023-12-14T05:39:40;95967.81;;;2.75;100.00
75815;BME280;70031;45.570;14.228;2023-12-14T05:41:41;95963.78;;;2.73;100.00
75815;BME280;70031;45.570;14.228;2023-12-14T05:43:41;95961.66;;;2.70;100.00
75815;BME280;70031;45.570;14.228;2023-12-14T05:45:42;95962.75;;;2.74;100.00
75815;BME280;70031;45.570;14.228;2023-12-14T05:47:42;95973.56;;;2.10;100.00
75815;BME280;70031;45.570;14.228;2023-12-14T05:49:43;95973.91;;;1.86;100.00
75815;BME280;70031;45.570;14.228;2023-12-14T05:51:43;95971.81;;;1.88;100.00
75815;BME280;70031;45.570;14.228;2023-12-14T05:53:43;95983.25;;;2.31;100.00
75815;BME280;70031;45.570;14.228;2023-12-14T05:55:44;95979.72;;;2.20;100.00
75815;BME280;70031;45.570;14.228;2023-12-14T05:57:44;95971.06;;;1.98;100.00
75815;BME280;70031;45.570;14.228;2023-12-14T05:59:44;95971.38;;;2.02;100.00
75815;BME280;70031;45.570;14.228;2023-12-14T06:01:44;95962.75;;;2.21;100.00
75815;BME280;70031;45.570;14.228;2023-12-14T06:03:45;95975.00;;;2.28;100.00
75815;BME280;70031;45.570;14.228;2023-12-14T06:05:45;95995.28;;;2.44;100.00
75815;BME280;70031;45.570;14.228;2023-12-14T06:07:45;95989.34;;;2.27;100.00
75815;BME280;70031;45.570;14.228;2023-12-14T06:09:45;96001.97;;;2.51;100.00
75815;BME280;70031;45.570;14.228;2023-12-14T06:11:45;95999.72;;;2.33;100.00
75815;BME280;70031;45.570;14.228;2023-12-14T06:13:46;95994.13;;;2.30;100.00
75815;BME280;70031;45.570;14.228;2023-12-14T06:15:46;96007.28;;;2.14;100.00
75815;BME280;70031;45.570;14.228;2023-12-14T06:17:46;96009.34;;;2.02;100.00
75815;BME280;70031;45.570;14.228;2023-12-14T06:19:46;96011.69;;;2.36;100.00
75815;BME280;70031;45.570;14.228;2023-12-14T06:21:47;96011.72;;;2.41;100.00
75815;BME280;70031;45.570;14.228;2023-12-14T06:23:47;96021.59;;;2.50;100.00
75815;BME280;70031;45.570;14.228;2023-12-14T06:25:47;96026.28;;;2.38;100.00
75815;BME280;70031;45.570;14.228;2023-12-14T06:27:47;96028.00;;;2.54;100.00
75815;BME280;70031;45.570;14.228;2023-12-14T06:29:48;96041.09;;;2.71;100.00
75815;BME280;70031;45.570;14.228;2023-12-14T06:31:48;96040.72;;;2.52;100.00
75815;BME280;70031;45.570;14.228;2023-12-14T06:33:48;96054.91;;;2.26;100.00
75815;BME280;70031;45.570;14.228;2023-12-14T06:35:49;96054.97;;;2.04;100.00
75815;BME280;70031;45.570;14.228;2023-12-14T06:37:50;96057.16;;;2.07;100.00
75815;BME280;70031;45.570;14.228;2023-12-14T06:39:50;96059.63;;;2.19;100.00
75815;BME280;70031;45.570;14.228;2023-12-14T06:41:52;96062.72;;;2.43;100.00
75815;BME280;70031;45.570;14.228;2023-12-14T06:43:52;96054.75;;;2.48;100.00
75815;BME280;70031;45.570;14.228;2023-12-14T06:45:52;96057.63;;;2.36;100.00
75815;BME280;70031;45.570;14.228;2023-12-14T06:47:53;96056.66;;;2.52;100.00
75815;BME280;70031;45.570;14.228;2023-12-14T06:49:53;96061.22;;;2.57;100.00
75815;BME280;70031;45.570;14.228;2023-12-14T06:51:53;96067.38;;;2.25;100.00
75815;BME280;70031;45.570;14.228;2023-12-14T06:53:53;96059.56;;;1.82;100.00
75815;BME280;70031;45.570;14.228;2023-12-14T06:55:53;96066.34;;;1.67;100.00
75815;BME280;70031;45.570;14.228;2023-12-14T06:57:54;96070.84;;;1.67;100.00
75815;BME280;70031;45.570;14.228;2023-12-14T06:59:54;96077.78;;;1.73;100.00
75815;BME280;70031;45.570;14.228;2023-12-14T07:01:54;96085.84;;;1.83;100.00
75815;BME280;70031;45.570;14.228;2023-12-14T07:03:55;96091.09;;;1.78;100.00
75815;BME280;70031;45.570;14.228;2023-12-14T07:05:55;96097.88;;;1.91;100.00
75815;BME280;70031;45.570;14.228;2023-12-14T07:07:56;96109.91;;;1.77;100.00
75815;BME280;70031;45.570;14.228;2023-12-14T07:09:56;96106.03;;;1.84;100.00
75815;BME280;70031;45.570;14.228;2023-12-14T07:11:56;96119.19;;;2.01;100.00
75815;BME280;70031;45.570;14.228;2023-12-14T07:13:56;96114.63;;;2.23;100.00
75815;BME280;70031;45.570;14.228;2023-12-14T07:15:57;96119.28;;;2.43;100.00
75815;BME280;70031;45.570;14.228;2023-12-14T07:17:57;96128.84;;;2.81;100.00
75815;BME280;70031;45.570;14.228;2023-12-14T07:19:57;96122.22;;;2.84;100.00
75815;BME280;70031;45.570;14.228;2023-12-14T07:21:57;96130.28;;;2.62;100.00
75815;BME280;70031;45.570;14.228;2023-12-14T07:23:57;96133.88;;;2.78;100.00
75815;BME280;70031;45.570;14.228;2023-12-14T07:25:58;96136.16;;;3.01;100.00
75815;BME280;70031;45.570;14.228;2023-12-14T07:27:58;96140.19;;;3.09;100.00
75815;BME280;70031;45.570;14.228;2023-12-14T07:29:58;96152.28;;;3.37;100.00
75815;BME280;70031;45.570;14.228;2023-12-14T07:31:58;96156.97;;;3.20;100.00
75815;BME280;70031;45.570;14.228;2023-12-14T07:33:59;96161.28;;;3.26;100.00
75815;BME280;70031;45.570;14.228;2023-12-14T07:35:59;96153.63;;;3.45;100.00
75815;BME280;70031;45.570;14.228;2023-12-14T07:37:59;96168.47;;;3.93;100.00
75815;BME280;70031;45.570;14.228;2023-12-14T07:39:59;96174.81;;;3.87;100.00
75815;BME280;70031;45.570;14.228;2023-12-14T07:41:59;96165.94;;;3.61;100.00
75815;BME280;70031;45.570;14.228;2023-12-14T07:44:00;96180.19;;;3.92;100.00
75815;BME280;70031;45.570;14.228;2023-12-14T07:46:00;96180.44;;;3.90;100.00
75815;BME280;70031;45.570;14.228;2023-12-14T07:48:00;96178.56;;;3.81;100.00
75815;BME280;70031;45.570;14.228;2023-12-14T07:50:01;96178.78;;;3.74;100.00
75815;BME280;70031;45.570;14.228;2023-12-14T07:52:01;96182.84;;;4.02;100.00
75815;BME280;70031;45.570;14.228;2023-12-14T07:54:01;96184.72;;;4.02;100.00
75815;BME280;70031;45.570;14.228;2023-12-14T07:56:03;96185.34;;;4.44;100.00
75815;BME280;70031;45.570;14.228;2023-12-14T07:58:04;96186.69;;;4.67;100.00
75815;BME280;70031;45.570;14.228;2023-12-14T08:00:06;96176.81;;;4.68;100.00
75815;BME280;70031;45.570;14.228;2023-12-14T08:02:08;96185.34;;;4.70;100.00
75815;BME280;70031;45.570;14.228;2023-12-14T08:04:08;96182.66;;;4.34;100.00
75815;BME280;70031;45.570;14.228;2023-12-14T08:06:11;96186.38;;;4.28;100.00
75815;BME280;70031;45.570;14.228;2023-12-14T08:08:11;96192.25;;;4.45;100.00
75815;BME280;70031;45.570;14.228;2023-12-14T08:10:11;96197.81;;;4.29;100.00
75815;BME280;70031;45.570;14.228;2023-12-14T08:12:11;96199.72;;;4.54;100.00
75815;BME280;70031;45.570;14.228;2023-12-14T08:14:12;96204.78;;;4.35;100.00
75815;BME280;70031;45.570;14.228;2023-12-14T08:16:12;96211.16;;;4.34;100.00
75815;BME280;70031;45.570;14.228;2023-12-14T08:18:12;96217.56;;;4.38;100.00
75815;BME280;70031;45.570;14.228;2023-12-14T08:20:12;96217.06;;;4.66;100.00
75815;BME280;70031;45.570;14.228;2023-12-14T08:22:13;96222.38;;;5.27;100.00
75815;BME280;70031;45.570;14.228;2023-12-14T08:24:15;96220.03;;;4.90;100.00
75815;BME280;70031;45.570;14.228;2023-12-14T08:26:15;96222.66;;;5.26;100.00
75815;BME280;70031;45.570;14.228;2023-12-14T08:28:15;96227.91;;;5.61;100.00
75815;BME280;70031;45.570;14.228;2023-12-14T08:30:16;96226.59;;;5.64;100.00
75815;BME280;70031;45.570;14.228;2023-12-14T08:32:16;96224.84;;;6.09;100.00
75815;BME280;70031;45.570;14.228;2023-12-14T08:34:16;96225.78;;;6.38;100.00
75815;BME280;70031;45.570;14.228;2023-12-14T08:36:17;96226.63;;;6.73;100.00
75815;BME280;70031;45.570;14.228;2023-12-14T08:38:17;96218.41;;;6.15;100.00
75815;BME280;70031;45.570;14.228;2023-12-14T08:40:17;96221.72;;;5.97;100.00
75815;BME280;70031;45.570;14.228;2023-12-14T08:42:17;96231.84;;;5.95;100.00
75815;BME280;70031;45.570;14.228;2023-12-14T08:44:17;96233.19;;;5.92;100.00
75815;BME280;70031;45.570;14.228;2023-12-14T08:46:18;96238.06;;;5.59;100.00
75815;BME280;70031;45.570;14.228;2023-12-14T08:48:18;96241.44;;;6.01;100.00
75815;BME280;70031;45.570;14.228;2023-12-14T08:50:19;96237.72;;;5.86;100.00
75815;BME280;70031;45.570;14.228;2023-12-14T08:52:19;96245.75;;;5.76;100.00
75815;BME280;70031;45.570;14.228;2023-12-14T08:54:19;96246.22;;;6.04;100.00
75815;BME280;70031;45.570;14.228;2023-12-14T08:56:19;96250.59;;;6.44;100.00
75815;BME280;70031;45.570;14.228;2023-12-14T08:58:19;96242.97;;;6.22;100.00
75815;BME280;70031;45.570;14.228;2023-12-14T09:00:20;96251.50;;;6.19;100.00
75815;BME280;70031;45.570;14.228;2023-12-14T09:02:20;96251.19;;;6.75;100.00
75815;BME280;70031;45.570;14.228;2023-12-14T09:04:20;96254.81;;;6.55;100.00
75815;BME280;70031;45.570;14.228;2023-12-14T09:06:21;96256.50;;;6.41;100.00
75815;BME280;70031;45.570;14.228;2023-12-14T09:08:21;96258.88;;;6.42;100.00
75815;BME280;70031;45.570;14.228;2023-12-14T09:10:24;96258.09;;;6.42;100.00
75815;BME280;70031;45.570;14.228;2023-12-14T09:12:24;96260.38;;;6.64;100.00
75815;BME280;70031;45.570;14.228;2023-12-14T09:14:25;96255.47;;;6.76;100.00
75815;BME280;70031;45.570;14.228;2023-12-14T09:16:25;96256.56;;;6.75;100.00
75815;BME280;70031;45.570;14.228;2023-12-14T09:18:25;96262.69;;;7.15;100.00
75815;BME280;70031;45.570;14.228;2023-12-14T09:20:25;96259.63;;;6.97;100.00
75815;BME280;70031;45.570;14.228;2023-12-14T09:22:25;96274.16;;;6.81;100.00
75815;BME280;70031;45.570;14.228;2023-12-14T09:24:26;96264.31;;;7.11;100.00
75815;BME280;70031;45.570;14.228;2023-12-14T09:26:26;96271.00;;;7.13;100.00
75815;BME280;70031;45.570;14.228;2023-12-14T09:28:26;96267.75;;;6.82;100.00
75815;BME280;70031;45.570;14.228;2023-12-14T09:30:26;96278.84;;;6.99;100.00
75815;BME280;70031;45.570;14.228;2023-12-14T09:32:27;96281.63;;;6.84;100.00
75815;BME280;70031;45.570;14.228;2023-12-14T09:34:27;96283.00;;;6.82;100.00
75815;BME280;70031;45.570;14.228;2023-12-14T09:36:27;96282.91;;;6.92;100.00
75815;BME280;70031;45.570;14.228;2023-12-14T09:38:27;96276.66;;;7.07;100.00
75815;BME280;70031;45.570;14.228;2023-12-14T09:40:28;96283.31;;;7.09;100.00
75815;BME280;70031;45.570;14.228;2023-12-14T09:42:28;96277.28;;;6.93;100.00
75815;BME280;70031;45.570;14.228;2023-12-14T09:44:29;96274.50;;;7.72;100.00
75815;BME280;70031;45.570;14.228;2023-12-14T09:46:29;96280.88;;;7.76;100.00
75815;BME280;70031;45.570;14.228;2023-12-14T09:48:31;96266.59;;;7.56;100.00
75815;BME280;70031;45.570;14.228;2023-12-14T09:50:31;96278.16;;;7.81;100.00
75815;BME280;70031;45.570;14.228;2023-12-14T09:52:32;96278.00;;;7.67;100.00
75815;BME280;70031;45.570;14.228;2023-12-14T09:54:33;96284.72;;;7.65;100.00
75815;BME280;70031;45.570;14.228;2023-12-14T09:56:33;96283.19;;;7.58;100.00
75815;BME280;70031;45.570;14.228;2023-12-14T09:58:34;96287.69;;;7.63;100.00
75815;BME280;70031;45.570;14.228;2023-12-14T10:00:38;96286.13;;;8.34;100.00
75815;BME280;70031;45.570;14.228;2023-12-14T10:02:38;96281.47;;;7.97;100.00
75815;BME280;70031;45.570;14.228;2023-12-14T10:04:38;96276.75;;;8.36;100.00
75815;BME280;70031;45.570;14.228;2023-12-14T10:06:39;96269.09;;;8.67;100.00
75815;BME280;70031;45.570;14.228;2023-12-14T10:08:39;96274.44;;;8.67;100.00
75815;BME280;70031;45.570;14.228;2023-12-14T10:10:40;96278.06;;;8.77;100.00
75815;BME280;70031;45.570;14.228;2023-12-14T10:12:53;96280.81;;;9.09;100.00
75815;BME280;70031;45.570;14.228;2023-12-14T10:15:00;96282.53;;;8.86;100.00
75815;BME280;70031;45.570;14.228;2023-12-14T10:19:33;96286.78;;;8.68;100.00
75815;BME280;70031;45.570;14.228;2023-12-14T10:21:33;96280.09;;;8.66;100.00
75815;BME280;70031;45.570;14.228;2023-12-14T10:23:34;96277.19;;;9.00;100.00
75815;BME280;70031;45.570;14.228;2023-12-14T10:25:35;96277.66;;;8.69;100.00
75815;BME280;70031;45.570;14.228;2023-12-14T10:27:37;96279.59;;;9.53;100.00
75815;BME280;70031;45.570;14.228;2023-12-14T10:29:37;96288.22;;;9.17;100.00
75815;BME280;70031;45.570;14.228;2023-12-14T10:31:39;96280.34;;;8.88;100.00
75815;BME280;70031;45.570;14.228;2023-12-14T10:33:39;96286.50;;;9.40;100.00
75815;BME280;70031;45.570;14.228;2023-12-14T10:35:40;96284.94;;;9.85;100.00